Terminal Aerodrome Forecast
Issued by NWS

Home | Current Version | Previous Version | Text Only | Print | Product List | Glossary On
Versions: 1 2 3 4 5 6 7 8 9 10 11 12 13 14 15 16
000
FTUS43 KICT 230741 AAA
TAFSLN
TAF AMD
KSLN 230741Z 2308/2406 15009KT P6SM SCT015 OVC025
     FM230900 15009KT 6SM -DZ BR SCT006 OVC009
     FM231100 15009KT 4SM -DZ BR SCT004 OVC006
     FM231700 14014KT 5SM -SHRA VCTS SCT008 OVC010CB
     FM240100 14012KT 4SM BR SCT004 BKN007=

USA.gov is the U.S. government's official web portal to all federal, state and local government web resources and services.